CheckWX is a tool to help pilots better visualize weather data.  It is not intended as a substitute for an official pre-flight weather briefing.

07:46:30 UTC

KGCM METAR
Claremore Regional Airport
Claremore, Oklahoma, USA
Current

32 mins ago

KGCM 260715Z AUTO 36005KT 7SM -RA BKN010 OVC014 02/00 A3020 RMK AO2 P0001
Observed
Feb-26 @ 07:15 UTC
Wind
  • 360° at 5 KTS
Visibility
7 SM
Flight Rules
MVFR
Conditions
Light Rain
Cloud Levels
  • Broken at 1,000' AGL
  • Overcast at 1,400' AGL
Temperature
C / 36°F
Dewpoint
C / 32°F
Humidity
87%
Altimeter
30.2" Hg
Pressure
1022.72 hPa
Current Rain
0.01"
Previous

52 mins ago

KGCM 260655Z AUTO 36007KT 10SM -RA OVC010 02/00 A3020 RMK AO2
Observed
Feb-26 @ 06:55 UTC
Wind
  • 360° at 7 KTS
Visibility
10 SM
Flight Rules
MVFR
Conditions
Light Rain
Cloud Levels
  • Overcast at 1,000' AGL
Temperature
C / 36°F
Dewpoint
C / 32°F
Humidity
87%
Altimeter
30.2" Hg
Pressure
1022.72 hPa
Previous

1 hour ago

KGCM 260635Z AUTO 02008KT 10SM OVC010 02/00 A3019 RMK AO2
Observed
Feb-26 @ 06:35 UTC
Wind
  • 020° at 8 KTS
Visibility
10 SM
Flight Rules
MVFR
Cloud Levels
  • Overcast at 1,000' AGL
Temperature
C / 36°F
Dewpoint
C / 32°F
Humidity
87%
Altimeter
30.19" Hg
Pressure
1022.32 hPa